createdAt,value
2022-08-12T00:00:37.881Z,940.73
2022-08-12T00:02:03.486Z,940.75
2022-08-12T00:02:38.081Z,940.72
2022-08-12T00:03:37.974Z,940.71
2022-08-12T00:04:38.736Z,940.72
2022-08-12T00:05:37.937Z,940.78
2022-08-12T00:06:37.949Z,940.82
2022-08-12T00:07:37.962Z,940.85
2022-08-12T00:08:37.975Z,940.81
2022-08-12T00:09:37.988Z,940.82
2022-08-12T00:10:38.006Z,940.88
2022-08-12T00:11:38.012Z,940.83
2022-08-12T00:12:38.193Z,940.84
2022-08-12T00:13:38.035Z,940.89
2022-08-12T00:14:38.047Z,940.89
2022-08-12T00:15:38.058Z,940.90
2022-08-12T00:16:38.071Z,940.90
2022-08-12T00:17:38.085Z,940.87
2022-08-12T00:18:38.297Z,940.91
2022-08-12T00:19:38.111Z,940.87
2022-08-12T00:20:38.121Z,940.90
2022-08-12T00:21:38.130Z,940.88
2022-08-12T00:22:38.184Z,940.94
2022-08-12T00:23:38.156Z,940.92
2022-08-12T00:24:38.168Z,940.93
2022-08-12T00:26:05.858Z,940.93
2022-08-12T00:26:38.192Z,940.93
2022-08-12T00:27:43.420Z,940.97
2022-08-12T00:28:38.216Z,940.94
2022-08-12T00:29:38.227Z,940.99
2022-08-12T00:30:38.241Z,940.99
2022-08-12T00:31:38.252Z,940.98
2022-08-12T00:32:38.263Z,940.97
2022-08-12T00:33:51.484Z,940.95
2022-08-12T00:34:38.288Z,940.98
2022-08-12T00:35:38.299Z,941.01
2022-08-12T00:36:38.312Z,941.01
2022-08-12T00:37:38.323Z,940.95
2022-08-12T00:38:38.335Z,940.94
2022-08-12T00:39:38.380Z,940.95
2022-08-12T00:40:38.360Z,940.96
2022-08-12T00:41:38.371Z,940.97
2022-08-12T00:42:38.628Z,940.97
2022-08-12T00:43:38.399Z,941.00
2022-08-12T00:44:38.407Z,941.00
2022-08-12T00:45:38.419Z,941.08
2022-08-12T00:46:38.433Z,941.04
2022-08-12T00:47:38.452Z,941.02
2022-08-12T00:48:38.454Z,941.03
2022-08-12T00:49:38.469Z,941.07
2022-08-12T00:50:38.479Z,941.04
2022-08-12T00:51:38.492Z,941.03
2022-08-12T00:52:38.702Z,941.01
2022-08-12T00:53:38.516Z,941.02
2022-08-12T00:54:38.528Z,941.02
2022-08-12T00:55:38.538Z,941.04
2022-08-12T00:56:38.552Z,941.06
2022-08-12T00:57:38.564Z,941.01
2022-08-12T00:58:38.578Z,941.01
2022-08-12T00:59:38.589Z,941.02
2022-08-12T01:00:38.600Z,941.03
2022-08-12T01:02:10.399Z,941.03
2022-08-12T01:02:38.917Z,941.02
2022-08-12T01:03:38.636Z,941.05
2022-08-12T01:04:38.647Z,941.02
2022-08-12T01:05:38.659Z,941.04
2022-08-12T01:06:38.671Z,941.03
2022-08-12T01:07:38.683Z,941.06
2022-08-12T01:08:38.695Z,941.08
2022-08-12T01:09:38.706Z,941.11
2022-08-12T01:10:38.719Z,941.10
2022-08-12T01:11:38.731Z,941.12
2022-08-12T01:12:38.961Z,941.11
2022-08-12T01:13:38.755Z,941.15
2022-08-12T01:14:38.768Z,941.15
2022-08-12T01:15:38.784Z,941.16
2022-08-12T01:16:38.791Z,941.14
2022-08-12T01:17:38.806Z,941.14
2022-08-12T01:18:38.814Z,941.20
2022-08-12T01:19:38.827Z,941.20
2022-08-12T01:20:38.839Z,941.22
2022-08-12T01:21:38.850Z,941.25
2022-08-12T01:22:39.049Z,941.27
2022-08-12T01:23:38.875Z,941.28
2022-08-12T01:24:38.887Z,941.25
2022-08-12T01:25:55.515Z,941.29
2022-08-12T01:26:38.910Z,941.29
2022-08-12T01:27:38.923Z,941.25
2022-08-12T01:28:38.937Z,941.28
2022-08-12T01:29:38.946Z,941.24
2022-08-12T01:30:38.957Z,941.27
2022-08-12T01:31:38.969Z,941.23
2022-08-12T01:32:39.093Z,941.21
2022-08-12T01:33:38.994Z,941.21
2022-08-12T01:34:39.161Z,941.20
2022-08-12T01:35:39.021Z,941.14
2022-08-12T01:36:39.030Z,941.13
2022-08-12T01:37:39.041Z,941.14
2022-08-12T01:38:39.054Z,941.15
2022-08-12T01:39:39.134Z,941.12
2022-08-12T01:40:42.522Z,941.16
2022-08-12T01:41:39.091Z,941.10
2022-08-12T01:42:39.287Z,941.15
2022-08-12T01:43:39.113Z,941.14
2022-08-12T01:44:39.125Z,941.16
2022-08-12T01:45:42.879Z,941.16
2022-08-12T01:46:39.150Z,941.19
2022-08-12T01:47:39.162Z,941.16
2022-08-12T01:48:39.173Z,941.15
2022-08-12T01:49:39.184Z,941.13
2022-08-12T01:50:39.195Z,941.13
2022-08-12T01:52:15.980Z,941.11
2022-08-12T01:52:39.452Z,941.10
2022-08-12T01:53:50.731Z,941.12
2022-08-12T01:54:39.244Z,941.12
2022-08-12T01:55:39.256Z,941.13
2022-08-12T01:56:39.268Z,941.07
2022-08-12T01:57:58.432Z,941.12
2022-08-12T01:58:39.291Z,941.09
2022-08-12T01:59:39.304Z,941.14
2022-08-12T02:00:43.439Z,941.10
2022-08-12T02:01:39.414Z,941.13
2022-08-12T02:02:39.394Z,941.14
2022-08-12T02:03:39.351Z,941.15
2022-08-12T02:04:39.364Z,941.13
2022-08-12T02:05:39.373Z,941.13
2022-08-12T02:06:39.387Z,941.13
2022-08-12T02:07:39.398Z,941.16
2022-08-12T02:08:39.412Z,941.10
2022-08-12T02:09:39.422Z,941.09
2022-08-12T02:10:50.158Z,941.11
2022-08-12T02:11:39.447Z,941.10
2022-08-12T02:12:39.784Z,941.09
2022-08-12T02:13:49.623Z,941.07
2022-08-12T02:14:39.482Z,941.02
2022-08-12T02:15:39.494Z,941.02
2022-08-12T02:16:39.507Z,940.98
2022-08-12T02:17:55.351Z,940.97
2022-08-12T02:18:39.530Z,940.93
2022-08-12T02:19:39.544Z,940.96
2022-08-12T02:20:51.589Z,940.95
2022-08-12T02:21:39.565Z,940.94
2022-08-12T02:22:39.726Z,940.97
2022-08-12T02:23:39.590Z,940.93
2022-08-12T02:24:39.602Z,940.94
2022-08-12T02:25:39.615Z,940.94
2022-08-12T02:26:39.624Z,940.94
2022-08-12T02:27:39.636Z,940.93
2022-08-12T02:28:39.650Z,940.96
2022-08-12T02:29:39.661Z,940.93
2022-08-12T02:30:41.908Z,940.93
2022-08-12T02:31:39.686Z,940.97
2022-08-12T02:32:39.881Z,940.97
2022-08-12T02:33:39.707Z,940.97
2022-08-12T02:34:39.718Z,940.99
2022-08-12T02:35:39.990Z,941.00
2022-08-12T02:36:39.744Z,940.99
2022-08-12T02:37:39.756Z,941.02
2022-08-12T02:38:39.766Z,941.06
2022-08-12T02:39:39.820Z,941.04
2022-08-12T02:40:39.792Z,941.08
2022-08-12T02:41:39.806Z,941.08
2022-08-12T02:42:40.049Z,941.09
2022-08-12T02:43:39.826Z,941.08
2022-08-12T02:44:39.838Z,941.11
2022-08-12T02:45:39.849Z,941.08
2022-08-12T02:46:39.862Z,941.13
2022-08-12T02:47:59.188Z,941.15
2022-08-12T02:48:39.887Z,941.15
2022-08-12T02:49:39.979Z,941.16
2022-08-12T02:50:39.910Z,941.14
2022-08-12T02:51:39.922Z,941.17
2022-08-12T02:52:40.199Z,941.18
2022-08-12T02:53:39.945Z,941.19
2022-08-12T02:54:39.956Z,941.16
2022-08-12T02:55:39.968Z,941.18
2022-08-12T02:56:39.980Z,941.18
2022-08-12T02:57:39.991Z,941.23
2022-08-12T02:58:41.541Z,941.20
2022-08-12T02:59:40.017Z,941.24
2022-08-12T03:00:40.104Z,941.21
2022-08-12T03:01:47.567Z,941.20
2022-08-12T03:02:40.305Z,941.19
2022-08-12T03:03:40.063Z,941.18
2022-08-12T03:04:43.681Z,941.15
2022-08-12T03:05:44.433Z,941.15
2022-08-12T03:06:40.107Z,941.16
2022-08-12T03:07:59.302Z,941.14
2022-08-12T03:08:40.123Z,941.16
2022-08-12T03:10:04.368Z,941.20
2022-08-12T03:10:40.147Z,941.18
2022-08-12T03:11:42.315Z,941.21
2022-08-12T03:12:48.752Z,941.21
2022-08-12T03:13:40.189Z,941.21
2022-08-12T03:14:40.196Z,941.19
2022-08-12T03:15:40.206Z,941.20
2022-08-12T03:16:40.217Z,941.21
2022-08-12T03:17:40.228Z,941.21
2022-08-12T03:18:43.314Z,941.20
2022-08-12T03:20:09.223Z,941.23
2022-08-12T03:20:40.267Z,941.25
2022-08-12T03:21:55.506Z,941.22
2022-08-12T03:22:40.591Z,941.26
2022-08-12T03:23:40.307Z,941.23
2022-08-12T03:24:40.313Z,941.24
2022-08-12T03:25:40.325Z,941.22
2022-08-12T03:26:40.336Z,941.26
2022-08-12T03:27:40.349Z,941.24
2022-08-12T03:28:40.363Z,941.22
2022-08-12T03:29:43.377Z,941.20
2022-08-12T03:30:40.383Z,941.21
2022-08-12T03:31:40.394Z,941.19
2022-08-12T03:32:40.407Z,941.16
2022-08-12T03:33:40.419Z,941.15
2022-08-12T03:34:40.428Z,941.13
2022-08-12T03:35:41.919Z,941.10
2022-08-12T03:36:40.456Z,941.08
2022-08-12T03:37:40.465Z,941.10
2022-08-12T03:38:40.479Z,941.13
2022-08-12T03:39:40.710Z,941.11
2022-08-12T03:40:40.501Z,941.12
2022-08-12T03:41:40.513Z,941.13
2022-08-12T03:42:40.878Z,941.17
2022-08-12T03:43:40.536Z,941.15
2022-08-12T03:44:40.549Z,941.15
2022-08-12T03:45:44.505Z,941.14
2022-08-12T03:46:40.573Z,941.18
2022-08-12T03:47:40.583Z,941.14
2022-08-12T03:48:40.596Z,941.19
2022-08-12T03:49:40.606Z,941.16
2022-08-12T03:50:40.620Z,941.13
2022-08-12T03:51:40.630Z,941.14
2022-08-12T03:52:40.824Z,941.15
2022-08-12T03:53:40.654Z,941.10
2022-08-12T03:54:42.725Z,941.14
2022-08-12T03:55:40.679Z,941.11
2022-08-12T03:56:40.690Z,941.18
2022-08-12T03:57:40.700Z,941.14
2022-08-12T03:58:40.713Z,941.09
2022-08-12T03:59:40.727Z,941.04
2022-08-12T04:00:40.798Z,941.07
2022-08-12T04:01:41.243Z,941.03
2022-08-12T04:02:40.962Z,941.03
2022-08-12T04:03:40.774Z,941.04
2022-08-12T04:04:40.785Z,941.04
2022-08-12T04:05:54.393Z,941.04
2022-08-12T04:06:40.840Z,941.08
2022-08-12T04:07:58.480Z,941.09
2022-08-12T04:08:40.832Z,941.06
2022-08-12T04:09:40.843Z,941.10
2022-08-12T04:10:40.853Z,941.05
2022-08-12T04:11:47.005Z,941.09
2022-08-12T04:12:41.267Z,941.04
2022-08-12T04:13:40.891Z,941.03
2022-08-12T04:14:40.901Z,941.03
2022-08-12T04:15:40.916Z,940.97
2022-08-12T04:16:40.928Z,940.98
2022-08-12T04:18:07.044Z,941.03
2022-08-12T04:18:40.949Z,941.00
2022-08-12T04:19:40.960Z,940.97
2022-08-12T04:20:40.973Z,940.96
2022-08-12T04:22:01.155Z,940.96
2022-08-12T04:22:41.303Z,940.96
2022-08-12T04:23:43.905Z,940.97
2022-08-12T04:24:41.092Z,940.96
2022-08-12T04:25:41.032Z,940.94
2022-08-12T04:26:41.044Z,940.92
2022-08-12T04:27:41.064Z,940.94
2022-08-12T04:28:41.066Z,940.94
2022-08-12T04:30:29.786Z,940.91
2022-08-12T04:30:41.089Z,940.88
2022-08-12T04:31:41.102Z,940.85
2022-08-12T04:32:44.487Z,940.84
2022-08-12T04:33:41.126Z,940.77
2022-08-12T04:34:41.140Z,940.76
2022-08-12T04:35:41.150Z,940.76
2022-08-12T04:36:41.161Z,940.79
2022-08-12T04:37:59.779Z,940.76
2022-08-12T04:38:41.185Z,940.74
2022-08-12T04:39:41.268Z,940.80
2022-08-12T04:40:41.207Z,940.79
2022-08-12T04:41:54.417Z,940.81
2022-08-12T04:42:41.450Z,940.84
2022-08-12T04:44:00.933Z,940.81
2022-08-12T04:44:41.256Z,940.80
2022-08-12T04:45:41.268Z,940.83
2022-08-12T04:46:41.281Z,940.83
2022-08-12T04:47:41.304Z,940.86
2022-08-12T04:48:41.304Z,940.81
2022-08-12T04:49:41.315Z,940.82
2022-08-12T04:50:41.325Z,940.86
2022-08-12T04:51:41.339Z,940.85
2022-08-12T04:52:41.540Z,940.83
2022-08-12T04:53:41.360Z,940.85
2022-08-12T04:54:41.374Z,940.85
2022-08-12T04:55:41.386Z,940.84
2022-08-12T04:56:41.396Z,940.82
2022-08-12T04:57:41.407Z,940.78
2022-08-12T04:58:41.426Z,940.76
2022-08-12T04:59:46.793Z,940.73
2022-08-12T05:00:41.455Z,940.76
2022-08-12T05:01:41.454Z,940.74
2022-08-12T05:02:41.701Z,940.75
2022-08-12T05:03:45.885Z,940.74
2022-08-12T05:04:41.491Z,940.78
2022-08-12T05:05:41.502Z,940.77
2022-08-12T05:06:41.514Z,940.75
2022-08-12T05:07:46.534Z,940.79
2022-08-12T05:08:41.538Z,940.79
2022-08-12T05:10:00.379Z,940.79
2022-08-12T05:10:41.560Z,940.74
2022-08-12T05:11:54.352Z,940.74
2022-08-12T05:12:41.830Z,940.77
2022-08-12T05:13:41.597Z,940.76
2022-08-12T05:14:41.609Z,940.73
2022-08-12T05:16:02.515Z,940.75
2022-08-12T05:16:41.636Z,940.77
2022-08-12T05:17:41.669Z,940.75
2022-08-12T05:18:45.944Z,940.72
2022-08-12T05:19:41.666Z,940.70
2022-08-12T05:20:41.678Z,940.67
2022-08-12T05:21:41.869Z,940.65
2022-08-12T05:22:41.935Z,940.60
2022-08-12T05:23:41.714Z,940.62
2022-08-12T05:24:41.725Z,940.62
2022-08-12T05:25:41.738Z,940.61
2022-08-12T05:26:41.747Z,940.63
2022-08-12T05:27:55.175Z,940.59
2022-08-12T05:28:41.773Z,940.62
2022-08-12T05:30:06.825Z,940.61
2022-08-12T05:30:41.796Z,940.56
2022-08-12T05:31:47.826Z,940.57
2022-08-12T05:32:42.036Z,940.50
2022-08-12T05:33:41.834Z,940.49
2022-08-12T05:34:41.844Z,940.45
2022-08-12T05:35:41.854Z,940.42
2022-08-12T05:36:41.868Z,940.41
2022-08-12T05:37:41.877Z,940.38
2022-08-12T05:38:41.890Z,940.40
2022-08-12T05:39:41.984Z,940.38
2022-08-12T05:40:42.082Z,940.36
2022-08-12T05:41:41.923Z,940.39
2022-08-12T05:42:42.413Z,940.38
2022-08-12T05:43:41.951Z,940.38
2022-08-12T05:44:41.960Z,940.39
2022-08-12T05:45:44.835Z,940.37
2022-08-12T05:46:41.983Z,940.37
2022-08-12T05:47:53.281Z,940.40
2022-08-12T05:48:42.008Z,940.37
2022-08-12T05:49:42.018Z,940.39
2022-08-12T05:50:42.029Z,940.38
2022-08-12T05:51:42.044Z,940.36
2022-08-12T05:52:42.271Z,940.36
2022-08-12T05:53:42.066Z,940.35
2022-08-12T05:54:56.996Z,940.35
2022-08-12T05:55:42.090Z,940.38
2022-08-12T05:56:42.161Z,940.38
2022-08-12T05:57:42.113Z,940.42
2022-08-12T05:58:42.125Z,940.40
2022-08-12T05:59:42.137Z,940.42
2022-08-12T06:00:42.150Z,940.41
2022-08-12T06:02:10.551Z,940.44
2022-08-12T06:02:42.274Z,940.44
2022-08-12T06:03:42.182Z,940.47
2022-08-12T06:04:42.193Z,940.46
2022-08-12T06:05:52.640Z,940.47
2022-08-12T06:06:42.219Z,940.52
2022-08-12T06:08:01.310Z,940.50
2022-08-12T06:08:42.243Z,940.54
2022-08-12T06:09:42.252Z,940.51
2022-08-12T06:10:42.266Z,940.51
2022-08-12T06:12:05.417Z,940.50
2022-08-12T06:12:42.557Z,940.45
2022-08-12T06:13:53.769Z,940.44
2022-08-12T06:14:42.311Z,940.41
2022-08-12T06:15:42.325Z,940.39
2022-08-12T06:16:42.335Z,940.36
2022-08-12T06:17:42.347Z,940.33
2022-08-12T06:18:42.358Z,940.33
2022-08-12T06:20:28.305Z,940.34
2022-08-12T06:20:42.382Z,940.34
2022-08-12T06:21:42.392Z,940.35
2022-08-12T06:22:42.406Z,940.31
2022-08-12T06:23:42.908Z,940.30
2022-08-12T06:24:42.428Z,940.30
2022-08-12T06:25:42.441Z,940.28
2022-08-12T06:26:42.451Z,940.31
2022-08-12T06:27:42.463Z,940.26
2022-08-12T06:28:42.476Z,940.27
2022-08-12T06:30:09.445Z,940.27
2022-08-12T06:30:42.499Z,940.29
2022-08-12T06:31:42.511Z,940.29
2022-08-12T06:32:51.710Z,940.30
2022-08-12T06:33:55.827Z,940.29
2022-08-12T06:35:25.500Z,940.30
2022-08-12T06:35:48.074Z,940.26
2022-08-12T06:36:42.930Z,940.29
2022-08-12T06:37:42.582Z,940.27
2022-08-12T06:38:42.592Z,940.26
2022-08-12T06:39:42.665Z,940.28
2022-08-12T06:40:42.619Z,940.25
2022-08-12T06:42:30.637Z,940.23
2022-08-12T06:42:42.725Z,940.27
2022-08-12T06:44:06.055Z,940.25
2022-08-12T06:44:42.663Z,940.23
2022-08-12T06:45:46.081Z,940.26
2022-08-12T06:46:42.688Z,940.26
2022-08-12T06:47:42.698Z,940.28
2022-08-12T06:48:42.710Z,940.31
2022-08-12T06:49:42.722Z,940.29
2022-08-12T06:50:42.785Z,940.26
2022-08-12T06:51:53.607Z,940.28
2022-08-12T06:52:42.757Z,940.27
2022-08-12T06:53:42.767Z,940.28
2022-08-12T06:54:42.779Z,940.32
2022-08-12T06:55:58.262Z,940.32
2022-08-12T06:58:06.255Z,940.34
2022-08-12T06:58:42.831Z,940.31
2022-08-12T06:59:42.840Z,940.29
2022-08-12T07:00:42.920Z,940.33
2022-08-12T07:01:50.775Z,940.30
2022-08-12T07:02:43.132Z,940.30
2022-08-12T07:03:42.885Z,940.33
2022-08-12T07:04:42.898Z,940.32
2022-08-12T07:05:42.909Z,940.31
2022-08-12T07:06:42.922Z,940.33
2022-08-12T07:07:42.932Z,940.32
2022-08-12T07:08:42.946Z,940.34
2022-08-12T07:10:07.087Z,940.31
2022-08-12T07:10:42.970Z,940.28
2022-08-12T07:11:42.983Z,940.29
2022-08-12T07:12:43.256Z,940.32
2022-08-12T07:14:02.635Z,940.31
2022-08-12T07:14:48.391Z,940.32
2022-08-12T07:15:43.026Z,940.31
2022-08-12T07:16:43.039Z,940.34
2022-08-12T07:17:43.048Z,940.34
2022-08-12T07:18:43.061Z,940.39
2022-08-12T07:19:45.510Z,940.36
2022-08-12T07:20:52.704Z,940.37
2022-08-12T07:21:57.954Z,940.39
2022-08-12T07:22:43.109Z,940.40
2022-08-12T07:23:43.120Z,940.42
2022-08-12T07:24:43.134Z,940.40
2022-08-12T07:25:43.141Z,940.40
2022-08-12T07:26:43.718Z,940.37
2022-08-12T07:27:43.167Z,940.43
2022-08-12T07:28:43.180Z,940.41
2022-08-12T07:30:03.690Z,940.40
2022-08-12T07:30:43.201Z,940.37
2022-08-12T07:31:43.212Z,940.38
2022-08-12T07:32:43.439Z,940.40
2022-08-12T07:33:43.234Z,940.39
2022-08-12T07:34:43.266Z,940.37
2022-08-12T07:35:43.260Z,940.38
2022-08-12T07:36:43.270Z,940.40
2022-08-12T07:37:43.286Z,940.40
2022-08-12T07:38:43.294Z,940.38
2022-08-12T07:39:50.737Z,940.40
2022-08-12T07:40:43.317Z,940.45
2022-08-12T07:41:43.330Z,940.45
2022-08-12T07:42:43.339Z,940.44
2022-08-12T07:43:43.352Z,940.49
2022-08-12T07:44:43.365Z,940.49
2022-08-12T07:45:43.375Z,940.46
2022-08-12T07:46:43.389Z,940.47
2022-08-12T07:47:43.643Z,940.47
2022-08-12T07:48:43.418Z,940.49
2022-08-12T07:50:05.200Z,940.44
2022-08-12T07:50:43.435Z,940.48
2022-08-12T07:51:43.443Z,940.45
2022-08-12T07:52:43.660Z,940.44
2022-08-12T07:53:51.973Z,940.49
2022-08-12T07:54:43.481Z,940.48
2022-08-12T07:55:43.501Z,940.47
2022-08-12T07:56:43.514Z,940.47
2022-08-12T07:57:43.519Z,940.47
2022-08-12T07:58:47.018Z,940.45
2022-08-12T07:59:43.540Z,940.45
2022-08-12T08:00:43.550Z,940.45
2022-08-12T08:01:43.633Z,940.45
2022-08-12T08:02:43.574Z,940.42
2022-08-12T08:03:47.591Z,940.40
2022-08-12T08:04:43.597Z,940.42
2022-08-12T08:05:43.607Z,940.38
2022-08-12T08:06:43.622Z,940.42
2022-08-12T08:07:43.633Z,940.45
2022-08-12T08:08:43.645Z,940.43
2022-08-12T08:09:43.654Z,940.44
2022-08-12T08:10:43.667Z,940.47
2022-08-12T08:11:43.678Z,940.50
2022-08-12T08:12:43.690Z,940.47
2022-08-12T08:13:43.702Z,940.49
2022-08-12T08:14:43.713Z,940.52
2022-08-12T08:16:02.633Z,940.57
2022-08-12T08:16:43.736Z,940.58
2022-08-12T08:17:43.747Z,940.60
2022-08-12T08:18:43.760Z,940.59
2022-08-12T08:20:03.358Z,940.61
2022-08-12T08:20:43.782Z,940.62
2022-08-12T08:21:43.793Z,940.60
2022-08-12T08:22:43.921Z,940.59
2022-08-12T08:23:43.823Z,940.61
2022-08-12T08:24:43.829Z,940.63
2022-08-12T08:25:43.839Z,940.63
2022-08-12T08:26:43.854Z,940.66
2022-08-12T08:27:43.864Z,940.67
2022-08-12T08:28:43.877Z,940.67
2022-08-12T08:29:43.887Z,940.69
2022-08-12T08:30:44.070Z,940.69
2022-08-12T08:31:45.526Z,940.68
2022-08-12T08:32:43.922Z,940.68
2022-08-12T08:34:09.052Z,940.71
2022-08-12T08:34:54.500Z,940.73
2022-08-12T08:35:46.853Z,940.72
2022-08-12T08:36:43.973Z,940.75
2022-08-12T08:37:43.982Z,940.74
2022-08-12T08:38:43.992Z,940.71
2022-08-12T08:39:44.219Z,940.74
2022-08-12T08:40:44.015Z,940.76
2022-08-12T08:42:19.028Z,940.78
2022-08-12T08:42:48.148Z,940.78
2022-08-12T08:43:44.911Z,940.76
2022-08-12T08:44:44.063Z,940.77
2022-08-12T08:45:44.084Z,940.77
2022-08-12T08:46:44.085Z,940.78
2022-08-12T08:47:44.099Z,940.80
2022-08-12T08:48:44.108Z,940.85
2022-08-12T08:49:44.119Z,940.87
2022-08-12T08:50:44.131Z,940.89
2022-08-12T08:51:44.143Z,940.92
2022-08-12T08:52:44.179Z,940.92
2022-08-12T08:53:44.167Z,940.98
2022-08-12T08:54:44.181Z,940.96
2022-08-12T08:56:04.127Z,941.01
2022-08-12T08:56:44.222Z,941.04
2022-08-12T08:57:44.775Z,941.03
2022-08-12T08:58:44.225Z,941.07
2022-08-12T08:59:44.236Z,941.08
2022-08-12T09:00:44.247Z,941.09
2022-08-12T09:01:44.692Z,941.11
2022-08-12T09:02:49.416Z,941.13
2022-08-12T09:05:09.714Z,941.11
2022-08-12T09:05:11.000Z,941.14
2022-08-12T09:06:02.902Z,941.17
2022-08-12T09:07:59.438Z,941.23
2022-08-12T09:08:44.344Z,941.20
2022-08-12T09:10:01.996Z,941.23
2022-08-12T09:12:44.616Z,941.25
2022-08-12T09:14:12.960Z,941.22
2022-08-12T09:14:47.147Z,941.21
2022-08-12T09:15:44.422Z,941.25
2022-08-12T09:16:44.434Z,941.26
2022-08-12T09:17:44.444Z,941.27
2022-08-12T09:18:44.454Z,941.24
2022-08-12T09:19:44.467Z,941.23
2022-08-12T09:20:44.477Z,941.28
2022-08-12T09:21:54.656Z,941.28
2022-08-12T09:22:50.225Z,941.29
2022-08-12T09:24:00.036Z,941.31
2022-08-12T09:24:44.528Z,941.29
2022-08-12T09:25:44.538Z,941.31
2022-08-12T09:26:45.983Z,941.29
2022-08-12T09:28:04.164Z,941.26
2022-08-12T09:28:44.574Z,941.26
2022-08-12T09:30:10.938Z,941.27
2022-08-12T09:30:44.596Z,941.32
2022-08-12T09:32:06.693Z,941.33
2022-08-12T09:33:05.273Z,941.34
2022-08-12T09:34:26.257Z,941.38
2022-08-12T09:34:45.072Z,941.40
2022-08-12T09:35:44.657Z,941.41
2022-08-12T09:36:59.941Z,941.40
2022-08-12T09:37:57.673Z,941.40
2022-08-12T09:38:58.606Z,941.43
2022-08-12T09:40:06.479Z,941.45
2022-08-12T09:41:01.690Z,941.43
2022-08-12T09:42:34.090Z,941.49
2022-08-12T09:42:54.180Z,941.48
2022-08-12T09:43:47.008Z,941.51
2022-08-12T09:44:44.889Z,941.52
2022-08-12T09:46:14.239Z,941.53
2022-08-12T09:46:44.983Z,941.55
2022-08-12T09:47:44.797Z,941.48
2022-08-12T09:48:56.646Z,941.53
2022-08-12T09:49:44.816Z,941.54
2022-08-12T09:50:50.525Z,941.55
2022-08-12T09:51:44.839Z,941.59
2022-08-12T09:52:45.667Z,941.61
2022-08-12T09:53:45.780Z,941.60
2022-08-12T09:54:44.872Z,941.59
2022-08-12T09:55:59.754Z,941.59
2022-08-12T09:57:00.362Z,941.59
2022-08-12T09:58:08.035Z,941.66
2022-08-12T09:59:00.582Z,941.64
2022-08-12T10:00:17.417Z,941.68
2022-08-12T10:00:51.765Z,941.68
2022-08-12T10:02:44.168Z,941.68
2022-08-12T10:02:53.394Z,941.67
2022-08-12T10:04:03.520Z,941.66
2022-08-12T10:04:45.710Z,941.65
2022-08-12T10:06:19.191Z,941.70
2022-08-12T10:06:55.677Z,941.69
2022-08-12T10:07:45.026Z,941.69
2022-08-12T10:08:45.040Z,941.75
2022-08-12T10:09:58.748Z,941.73
2022-08-12T10:10:45.055Z,941.72
2022-08-12T10:12:07.800Z,941.69
2022-08-12T10:13:10.593Z,941.72
2022-08-12T10:13:45.092Z,941.76
2022-08-12T10:14:50.444Z,941.78
2022-08-12T10:16:02.952Z,941.79
2022-08-12T10:16:45.128Z,941.80
2022-08-12T10:17:56.551Z,941.85
2022-08-12T10:18:51.711Z,941.85
2022-08-12T10:19:51.637Z,941.88
2022-08-12T10:20:45.173Z,941.92
2022-08-12T10:21:45.195Z,941.92
2022-08-12T10:22:45.196Z,942.00
2022-08-12T10:23:46.119Z,941.99
2022-08-12T10:24:53.353Z,941.98
2022-08-12T10:26:35.000Z,942.01
2022-08-12T10:26:45.243Z,942.01
2022-08-12T10:28:04.899Z,942.04
2022-08-12T10:29:02.550Z,942.07
2022-08-12T10:30:37.439Z,942.12
2022-08-12T10:30:58.440Z,942.12
2022-08-12T10:32:01.648Z,942.13
2022-08-12T10:32:56.458Z,942.14
2022-08-12T10:34:04.917Z,942.10
2022-08-12T10:34:53.138Z,942.10
2022-08-12T10:35:45.347Z,942.15
2022-08-12T10:36:45.356Z,942.16
2022-08-12T10:38:34.603Z,942.16
2022-08-12T10:38:45.379Z,942.18
2022-08-12T10:40:02.817Z,942.17
2022-08-12T10:40:45.462Z,942.17
2022-08-12T10:41:58.656Z,942.18
2022-08-12T10:42:45.966Z,942.20
2022-08-12T10:43:54.447Z,942.21
2022-08-12T10:44:45.448Z,942.22
2022-08-12T10:45:46.066Z,942.20
2022-08-12T10:46:45.471Z,942.20
2022-08-12T10:48:19.810Z,942.21
2022-08-12T10:48:45.495Z,942.23
2022-08-12T10:50:03.694Z,942.22
2022-08-12T10:51:01.718Z,942.24
2022-08-12T10:52:02.982Z,942.22
2022-08-12T10:52:45.816Z,942.22
2022-08-12T10:53:46.891Z,942.21
2022-08-12T10:54:45.564Z,942.17
2022-08-12T10:55:45.579Z,942.19
2022-08-12T10:56:45.591Z,942.18
2022-08-12T10:58:12.696Z,942.17
2022-08-12T10:58:46.769Z,942.20
2022-08-12T11:00:30.265Z,942.18
2022-08-12T11:01:26.095Z,942.18
2022-08-12T11:04:18.658Z,942.20
2022-08-12T11:04:20.275Z,942.17
2022-08-12T11:04:20.568Z,942.22
2022-08-12T11:04:49.719Z,942.17
2022-08-12T11:07:02.341Z,942.22
2022-08-12T11:07:08.079Z,942.23
2022-08-12T11:08:38.023Z,942.25
2022-08-12T11:08:46.290Z,942.25
2022-08-12T11:09:56.405Z,942.28
2022-08-12T11:10:45.852Z,942.29
2022-08-12T11:12:35.059Z,942.26
2022-08-12T11:12:58.876Z,942.29
2022-08-12T11:13:48.638Z,942.26
2022-08-12T11:14:49.719Z,942.29
2022-08-12T11:16:03.745Z,942.30
2022-08-12T11:17:34.273Z,942.32
2022-08-12T11:17:52.437Z,942.33
2022-08-12T11:18:45.843Z,942.36
2022-08-12T11:19:45.854Z,942.33
2022-08-12T11:20:45.865Z,942.36
2022-08-12T11:21:57.840Z,942.41
2022-08-12T11:22:57.805Z,942.39
2022-08-12T11:23:45.899Z,942.38
2022-08-12T11:24:51.377Z,942.41
2022-08-12T11:25:56.663Z,942.47
2022-08-12T11:26:45.992Z,942.44
2022-08-12T11:27:45.945Z,942.43
2022-08-12T11:28:45.957Z,942.48
2022-08-12T11:29:45.967Z,942.48
2022-08-12T11:30:45.981Z,942.47
2022-08-12T11:31:56.364Z,942.46
2022-08-12T11:32:47.194Z,942.51
2022-08-12T11:34:05.476Z,942.48
2022-08-12T11:34:52.947Z,942.50
2022-08-12T11:35:46.035Z,942.52
2022-08-12T11:36:46.019Z,942.55
2022-08-12T11:37:58.897Z,942.55
2022-08-12T11:38:50.417Z,942.56
2022-08-12T11:40:02.879Z,942.57
2022-08-12T11:40:46.065Z,942.55
2022-08-12T11:41:46.296Z,942.57
2022-08-12T11:42:47.244Z,942.57
2022-08-12T11:43:50.235Z,942.57
2022-08-12T11:44:46.112Z,942.58
2022-08-12T11:45:46.923Z,942.56
2022-08-12T11:46:46.133Z,942.57
2022-08-12T11:47:46.150Z,942.55
2022-08-12T11:48:52.134Z,942.57
2022-08-12T11:49:46.170Z,942.56
2022-08-12T11:50:46.181Z,942.56
2022-08-12T11:51:46.193Z,942.59
2022-08-12T11:52:55.910Z,942.56
2022-08-12T11:53:57.015Z,942.60
2022-08-12T11:54:47.793Z,942.62
2022-08-12T11:55:46.963Z,942.60
2022-08-12T11:56:59.437Z,942.60
2022-08-12T11:58:19.849Z,942.64
2022-08-12T12:01:58.373Z,942.63
2022-08-12T12:02:04.750Z,942.72
2022-08-12T12:02:46.356Z,942.72
2022-08-12T12:03:46.677Z,942.77
2022-08-12T12:04:46.349Z,942.75
2022-08-12T12:05:46.361Z,942.77
2022-08-12T12:06:53.000Z,942.72
2022-08-12T12:08:38.696Z,942.74
2022-08-12T12:08:51.009Z,942.74
2022-08-12T12:09:53.399Z,942.75
2022-08-12T12:10:46.420Z,942.73
2022-08-12T12:11:49.523Z,942.79
2022-08-12T12:12:49.729Z,942.78
2022-08-12T12:14:07.522Z,942.73
2022-08-12T12:14:46.468Z,942.73
2022-08-12T12:15:47.396Z,942.73
2022-08-12T12:16:50.028Z,942.77
2022-08-12T12:17:46.503Z,942.76
2022-08-12T12:18:46.517Z,942.83
2022-08-12T12:19:46.651Z,942.78
2022-08-12T12:20:46.541Z,942.79
2022-08-12T12:21:47.284Z,942.79
2022-08-12T12:22:46.567Z,942.76
2022-08-12T12:23:47.099Z,942.80
2022-08-12T12:24:46.588Z,942.84
2022-08-12T12:26:07.062Z,942.80
2022-08-12T12:26:46.612Z,942.85
2022-08-12T12:28:04.603Z,942.82
2022-08-12T12:28:54.176Z,942.78
2022-08-12T12:30:18.438Z,942.82
2022-08-12T12:30:54.669Z,942.79
2022-08-12T12:32:10.958Z,942.80
2022-08-12T12:32:46.684Z,942.81
2022-08-12T12:33:57.769Z,942.77
2022-08-12T12:35:14.352Z,942.81